sensor_id;sensor_type;location;lat;lon;timestamp;P1;durP1;ratioP1;P2;durP2;ratioP2
13999;SDS011;7075;53.574;10.054;2023-03-01T00:01:10;167.10;;;157.88;;
13999;SDS011;7075;53.574;10.054;2023-03-01T00:03:42;155.93;;;147.27;;
13999;SDS011;7075;53.574;10.054;2023-03-01T00:06:10;144.20;;;136.18;;
13999;SDS011;7075;53.574;10.054;2023-03-01T00:08:36;135.93;;;128.48;;
13999;SDS011;7075;53.574;10.054;2023-03-01T00:11:11;136.50;;;129.15;;
13999;SDS011;7075;53.574;10.054;2023-03-01T00:13:39;133.07;;;125.55;;
13999;SDS011;7075;53.574;10.054;2023-03-01T00:16:07;129.90;;;122.65;;
13999;SDS011;7075;53.574;10.054;2023-03-01T00:18:35;129.75;;;122.07;;
13999;SDS011;7075;53.574;10.054;2023-03-01T00:21:01;125.97;;;119.00;;
13999;SDS011;7075;53.574;10.054;2023-03-01T00:23:27;123.03;;;116.20;;
13999;SDS011;7075;53.574;10.054;2023-03-01T00:25:53;124.37;;;117.60;;
13999;SDS011;7075;53.574;10.054;2023-03-01T00:28:20;123.25;;;116.40;;
13999;SDS011;7075;53.574;10.054;2023-03-01T00:30:46;123.85;;;116.95;;
13999;SDS011;7075;53.574;10.054;2023-03-01T00:33:12;120.28;;;113.22;;
13999;SDS011;7075;53.574;10.054;2023-03-01T00:35:38;120.03;;;112.97;;
13999;SDS011;7075;53.574;10.054;2023-03-01T00:38:05;114.30;;;107.90;;
13999;SDS011;7075;53.574;10.054;2023-03-01T00:40:31;105.60;;;99.38;;
13999;SDS011;7075;53.574;10.054;2023-03-01T00:42:58;107.30;;;101.03;;
13999;SDS011;7075;53.574;10.054;2023-03-01T00:45:25;102.23;;;95.90;;
13999;SDS011;7075;53.574;10.054;2023-03-01T00:47:51;109.30;;;103.00;;
13999;SDS011;7075;53.574;10.054;2023-03-01T00:50:17;108.70;;;102.47;;
13999;SDS011;7075;53.574;10.054;2023-03-01T00:52:43;105.03;;;98.73;;
13999;SDS011;7075;53.574;10.054;2023-03-01T00:55:09;102.67;;;96.20;;
13999;SDS011;7075;53.574;10.054;2023-03-01T00:57:36;106.70;;;100.57;;
13999;SDS011;7075;53.574;10.054;2023-03-01T01:00:02;104.22;;;97.60;;
13999;SDS011;7075;53.574;10.054;2023-03-01T01:02:29;99.85;;;93.95;;
13999;SDS011;7075;53.574;10.054;2023-03-01T01:04:57;103.57;;;97.28;;
13999;SDS011;7075;53.574;10.054;2023-03-01T01:07:23;96.63;;;90.63;;
13999;SDS011;7075;53.574;10.054;2023-03-01T01:09:49;101.43;;;95.53;;
13999;SDS011;7075;53.574;10.054;2023-03-01T01:12:15;97.07;;;91.37;;
13999;SDS011;7075;53.574;10.054;2023-03-01T01:14:40;99.28;;;93.18;;
13999;SDS011;7075;53.574;10.054;2023-03-01T01:17:06;103.32;;;97.25;;
13999;SDS011;7075;53.574;10.054;2023-03-01T01:19:31;101.90;;;95.47;;
13999;SDS011;7075;53.574;10.054;2023-03-01T01:21:57;96.27;;;90.70;;
13999;SDS011;7075;53.574;10.054;2023-03-01T01:24:23;97.53;;;91.57;;
13999;SDS011;7075;53.574;10.054;2023-03-01T01:26:48;96.50;;;90.47;;
13999;SDS011;7075;53.574;10.054;2023-03-01T01:29:14;101.15;;;94.93;;
13999;SDS011;7075;53.574;10.054;2023-03-01T01:31:40;95.75;;;90.18;;
13999;SDS011;7075;53.574;10.054;2023-03-01T01:34:08;99.40;;;93.50;;
13999;SDS011;7075;53.574;10.054;2023-03-01T01:36:41;100.60;;;94.75;;
13999;SDS011;7075;53.574;10.054;2023-03-01T01:39:08;97.53;;;91.43;;
13999;SDS011;7075;53.574;10.054;2023-03-01T01:41:38;96.23;;;90.47;;
13999;SDS011;7075;53.574;10.054;2023-03-01T01:44:24;96.18;;;90.45;;
13999;SDS011;7075;53.574;10.054;2023-03-01T01:47:01;97.22;;;91.35;;
13999;SDS011;7075;53.574;10.054;2023-03-01T01:49:32;100.32;;;94.47;;
13999;SDS011;7075;53.574;10.054;2023-03-01T01:52:16;100.65;;;94.82;;
13999;SDS011;7075;53.574;10.054;2023-03-01T01:54:56;100.40;;;94.35;;
13999;SDS011;7075;53.574;10.054;2023-03-01T01:57:28;101.32;;;95.25;;
13999;SDS011;7075;53.574;10.054;2023-03-01T01:59:59;98.95;;;93.25;;
13999;SDS011;7075;53.574;10.054;2023-03-01T02:02:29;104.55;;;98.22;;
13999;SDS011;7075;53.574;10.054;2023-03-01T02:05:58;97.68;;;92.00;;
13999;SDS011;7075;53.574;10.054;2023-03-01T02:07:51;101.07;;;95.32;;
13999;SDS011;7075;53.574;10.054;2023-03-01T02:10:17;103.15;;;97.15;;
13999;SDS011;7075;53.574;10.054;2023-03-01T02:12:43;101.85;;;95.95;;
13999;SDS011;7075;53.574;10.054;2023-03-01T02:15:09;99.68;;;93.80;;
13999;SDS011;7075;53.574;10.054;2023-03-01T02:17:35;101.00;;;94.90;;
13999;SDS011;7075;53.574;10.054;2023-03-01T02:22:50;102.95;;;96.88;;
13999;SDS011;7075;53.574;10.054;2023-03-01T02:25:36;103.32;;;97.38;;
13999;SDS011;7075;53.574;10.054;2023-03-01T02:30:44;105.00;;;99.13;;
13999;SDS011;7075;53.574;10.054;2023-03-01T02:33:31;102.00;;;96.07;;
13999;SDS011;7075;53.574;10.054;2023-03-01T02:36:01;101.93;;;96.23;;
13999;SDS011;7075;53.574;10.054;2023-03-01T02:38:29;103.93;;;97.50;;
13999;SDS011;7075;53.574;10.054;2023-03-01T02:40:56;105.47;;;99.47;;
13999;SDS011;7075;53.574;10.054;2023-03-01T02:43:24;103.43;;;97.23;;
13999;SDS011;7075;53.574;10.054;2023-03-01T02:45:59;107.80;;;101.25;;
13999;SDS011;7075;53.574;10.054;2023-03-01T02:48:38;109.25;;;102.70;;
13999;SDS011;7075;53.574;10.054;2023-03-01T02:54:15;112.28;;;105.47;;
13999;SDS011;7075;53.574;10.054;2023-03-01T02:56:58;128.55;;;120.90;;
13999;SDS011;7075;53.574;10.054;2023-03-01T02:59:26;121.63;;;113.67;;
13999;SDS011;7075;53.574;10.054;2023-03-01T03:01:56;127.67;;;119.97;;
13999;SDS011;7075;53.574;10.054;2023-03-01T03:04:22;123.93;;;116.43;;
13999;SDS011;7075;53.574;10.054;2023-03-01T03:06:48;123.23;;;115.73;;
13999;SDS011;7075;53.574;10.054;2023-03-01T03:09:15;126.63;;;119.25;;
13999;SDS011;7075;53.574;10.054;2023-03-01T03:11:41;133.40;;;125.33;;
13999;SDS011;7075;53.574;10.054;2023-03-01T03:14:08;124.53;;;116.93;;
13999;SDS011;7075;53.574;10.054;2023-03-01T03:16:47;137.68;;;129.50;;
13999;SDS011;7075;53.574;10.054;2023-03-01T03:19:14;133.95;;;126.10;;
13999;SDS011;7075;53.574;10.054;2023-03-01T03:21:44;144.60;;;135.87;;
13999;SDS011;7075;53.574;10.054;2023-03-01T03:24:10;141.27;;;133.03;;
13999;SDS011;7075;53.574;10.054;2023-03-01T03:26:36;150.63;;;141.53;;
13999;SDS011;7075;53.574;10.054;2023-03-01T03:29:02;161.70;;;152.20;;
13999;SDS011;7075;53.574;10.054;2023-03-01T03:31:27;181.60;;;171.13;;
13999;SDS011;7075;53.574;10.054;2023-03-01T03:33:53;184.68;;;173.63;;
13999;SDS011;7075;53.574;10.054;2023-03-01T03:36:21;194.00;;;182.70;;
13999;SDS011;7075;53.574;10.054;2023-03-01T03:38:48;209.17;;;197.03;;
13999;SDS011;7075;53.574;10.054;2023-03-01T03:41:14;205.95;;;193.80;;
13999;SDS011;7075;53.574;10.054;2023-03-01T03:43:40;221.93;;;209.18;;
13999;SDS011;7075;53.574;10.054;2023-03-01T03:46:08;216.32;;;203.90;;
13999;SDS011;7075;53.574;10.054;2023-03-01T03:48:37;238.80;;;224.95;;
13999;SDS011;7075;53.574;10.054;2023-03-01T03:51:06;235.80;;;221.93;;
13999;SDS011;7075;53.574;10.054;2023-03-01T03:53:34;229.15;;;215.63;;
13999;SDS011;7075;53.574;10.054;2023-03-01T03:56:00;244.60;;;230.43;;
13999;SDS011;7075;53.574;10.054;2023-03-01T03:58:25;231.70;;;218.27;;
13999;SDS011;7075;53.574;10.054;2023-03-01T04:00:52;245.97;;;231.70;;
13999;SDS011;7075;53.574;10.054;2023-03-01T04:03:20;244.50;;;230.40;;
13999;SDS011;7075;53.574;10.054;2023-03-01T04:05:47;232.68;;;219.13;;
13999;SDS011;7075;53.574;10.054;2023-03-01T04:08:15;262.73;;;247.57;;
13999;SDS011;7075;53.574;10.054;2023-03-01T04:10:42;249.73;;;235.30;;
13999;SDS011;7075;53.574;10.054;2023-03-01T04:13:14;239.30;;;225.32;;
13999;SDS011;7075;53.574;10.054;2023-03-01T04:15:42;245.43;;;230.95;;
13999;SDS011;7075;53.574;10.054;2023-03-01T04:18:14;235.55;;;221.98;;
13999;SDS011;7075;53.574;10.054;2023-03-01T04:20:40;237.75;;;223.75;;
13999;SDS011;7075;53.574;10.054;2023-03-01T04:23:07;224.25;;;211.38;;
13999;SDS011;7075;53.574;10.054;2023-03-01T04:25:42;239.77;;;225.83;;
13999;SDS011;7075;53.574;10.054;2023-03-01T04:28:08;219.63;;;206.88;;
13999;SDS011;7075;53.574;10.054;2023-03-01T04:30:34;242.85;;;228.65;;
13999;SDS011;7075;53.574;10.054;2023-03-01T04:33:01;243.13;;;229.20;;
13999;SDS011;7075;53.574;10.054;2023-03-01T04:35:29;236.20;;;222.90;;
13999;SDS011;7075;53.574;10.054;2023-03-01T04:37:55;235.77;;;222.07;;
13999;SDS011;7075;53.574;10.054;2023-03-01T04:40:21;226.88;;;213.95;;
13999;SDS011;7075;53.574;10.054;2023-03-01T04:42:46;250.80;;;236.30;;
13999;SDS011;7075;53.574;10.054;2023-03-01T04:45:12;251.10;;;236.95;;
13999;SDS011;7075;53.574;10.054;2023-03-01T04:47:38;244.03;;;230.03;;
13999;SDS011;7075;53.574;10.054;2023-03-01T04:50:05;261.33;;;246.68;;
13999;SDS011;7075;53.574;10.054;2023-03-01T04:52:32;239.27;;;225.57;;
13999;SDS011;7075;53.574;10.054;2023-03-01T04:54:57;238.70;;;225.15;;
13999;SDS011;7075;53.574;10.054;2023-03-01T04:57:23;235.07;;;221.68;;
13999;SDS011;7075;53.574;10.054;2023-03-01T04:59:49;248.27;;;234.07;;
13999;SDS011;7075;53.574;10.054;2023-03-01T05:02:14;242.83;;;229.10;;
13999;SDS011;7075;53.574;10.054;2023-03-01T05:04:40;237.50;;;223.97;;
13999;SDS011;7075;53.574;10.054;2023-03-01T05:07:05;234.00;;;220.35;;
13999;SDS011;7075;53.574;10.054;2023-03-01T05:09:31;223.80;;;210.83;;
13999;SDS011;7075;53.574;10.054;2023-03-01T05:11:56;233.77;;;220.43;;
13999;SDS011;7075;53.574;10.054;2023-03-01T05:14:22;240.98;;;227.27;;
13999;SDS011;7075;53.574;10.054;2023-03-01T05:16:47;228.98;;;216.32;;
13999;SDS011;7075;53.574;10.054;2023-03-01T05:19:13;230.33;;;217.33;;
13999;SDS011;7075;53.574;10.054;2023-03-01T05:21:47;216.07;;;203.73;;
13999;SDS011;7075;53.574;10.054;2023-03-01T05:24:29;231.07;;;218.18;;
13999;SDS011;7075;53.574;10.054;2023-03-01T05:26:56;221.30;;;208.80;;
13999;SDS011;7075;53.574;10.054;2023-03-01T05:29:23;232.73;;;219.57;;
13999;SDS011;7075;53.574;10.054;2023-03-01T05:31:59;245.23;;;231.60;;
13999;SDS011;7075;53.574;10.054;2023-03-01T05:34:29;229.23;;;216.40;;
13999;SDS011;7075;53.574;10.054;2023-03-01T05:36:57;223.98;;;211.40;;
13999;SDS011;7075;53.574;10.054;2023-03-01T05:39:23;231.57;;;218.67;;
13999;SDS011;7075;53.574;10.054;2023-03-01T05:41:57;200.35;;;189.15;;
13999;SDS011;7075;53.574;10.054;2023-03-01T05:44:25;196.43;;;185.52;;
13999;SDS011;7075;53.574;10.054;2023-03-01T05:46:51;190.05;;;179.40;;
13999;SDS011;7075;53.574;10.054;2023-03-01T05:49:17;185.27;;;175.00;;
13999;SDS011;7075;53.574;10.054;2023-03-01T05:51:45;189.75;;;179.15;;
13999;SDS011;7075;53.574;10.054;2023-03-01T05:54:13;188.77;;;177.98;;
13999;SDS011;7075;53.574;10.054;2023-03-01T05:56:39;193.83;;;183.10;;
13999;SDS011;7075;53.574;10.054;2023-03-01T05:59:05;188.48;;;177.88;;
13999;SDS011;7075;53.574;10.054;2023-03-01T06:01:34;189.15;;;178.70;;
13999;SDS011;7075;53.574;10.054;2023-03-01T06:04:00;184.05;;;173.77;;
13999;SDS011;7075;53.574;10.054;2023-03-01T06:06:26;197.52;;;186.52;;
13999;SDS011;7075;53.574;10.054;2023-03-01T06:08:52;187.15;;;176.63;;
13999;SDS011;7075;53.574;10.054;2023-03-01T06:11:18;181.13;;;170.88;;
13999;SDS011;7075;53.574;10.054;2023-03-01T06:13:45;183.55;;;173.35;;
13999;SDS011;7075;53.574;10.054;2023-03-01T06:16:11;208.95;;;197.55;;
13999;SDS011;7075;53.574;10.054;2023-03-01T06:18:37;214.57;;;202.80;;
13999;SDS011;7075;53.574;10.054;2023-03-01T06:21:03;211.88;;;200.35;;
13999;SDS011;7075;53.574;10.054;2023-03-01T06:23:29;196.75;;;185.77;;
13999;SDS011;7075;53.574;10.054;2023-03-01T06:25:55;203.63;;;192.20;;
13999;SDS011;7075;53.574;10.054;2023-03-01T06:28:20;211.98;;;200.13;;
13999;SDS011;7075;53.574;10.054;2023-03-01T06:30:46;210.88;;;199.00;;
13999;SDS011;7075;53.574;10.054;2023-03-01T06:33:12;216.23;;;204.00;;
13999;SDS011;7075;53.574;10.054;2023-03-01T06:35:38;227.40;;;215.17;;
13999;SDS011;7075;53.574;10.054;2023-03-01T06:38:04;230.23;;;218.10;;
13999;SDS011;7075;53.574;10.054;2023-03-01T06:40:30;239.93;;;227.32;;
13999;SDS011;7075;53.574;10.054;2023-03-01T06:42:57;214.60;;;203.40;;
13999;SDS011;7075;53.574;10.054;2023-03-01T06:45:23;227.25;;;215.63;;
13999;SDS011;7075;53.574;10.054;2023-03-01T06:47:49;212.40;;;201.25;;
13999;SDS011;7075;53.574;10.054;2023-03-01T06:50:16;212.05;;;201.02;;
13999;SDS011;7075;53.574;10.054;2023-03-01T06:52:43;210.27;;;199.55;;
13999;SDS011;7075;53.574;10.054;2023-03-01T06:55:09;212.50;;;201.57;;
13999;SDS011;7075;53.574;10.054;2023-03-01T06:57:35;204.85;;;194.25;;
13999;SDS011;7075;53.574;10.054;2023-03-01T07:00:01;210.77;;;199.82;;
13999;SDS011;7075;53.574;10.054;2023-03-01T07:02:28;211.45;;;200.25;;
13999;SDS011;7075;53.574;10.054;2023-03-01T07:04:54;209.40;;;198.53;;
13999;SDS011;7075;53.574;10.054;2023-03-01T07:07:19;212.75;;;201.80;;
13999;SDS011;7075;53.574;10.054;2023-03-01T07:09:45;215.13;;;204.05;;
13999;SDS011;7075;53.574;10.054;2023-03-01T07:12:11;194.23;;;184.23;;
13999;SDS011;7075;53.574;10.054;2023-03-01T07:14:37;193.68;;;183.60;;
13999;SDS011;7075;53.574;10.054;2023-03-01T07:17:02;193.38;;;183.25;;
13999;SDS011;7075;53.574;10.054;2023-03-01T07:19:28;181.20;;;171.53;;
13999;SDS011;7075;53.574;10.054;2023-03-01T07:21:53;171.33;;;162.47;;
13999;SDS011;7075;53.574;10.054;2023-03-01T07:24:20;175.82;;;166.70;;
13999;SDS011;7075;53.574;10.054;2023-03-01T07:26:50;178.77;;;169.02;;
13999;SDS011;7075;53.574;10.054;2023-03-01T07:29:16;187.18;;;177.52;;
13999;SDS011;7075;53.574;10.054;2023-03-01T07:31:42;186.63;;;176.77;;
13999;SDS011;7075;53.574;10.054;2023-03-01T07:34:08;177.82;;;168.43;;
13999;SDS011;7075;53.574;10.054;2023-03-01T07:36:34;180.10;;;170.70;;
13999;SDS011;7075;53.574;10.054;2023-03-01T07:38:59;196.17;;;185.87;;
13999;SDS011;7075;53.574;10.054;2023-03-01T07:41:27;188.27;;;178.27;;
13999;SDS011;7075;53.574;10.054;2023-03-01T07:43:53;187.85;;;177.73;;
13999;SDS011;7075;53.574;10.054;2023-03-01T07:46:18;185.63;;;175.93;;
13999;SDS011;7075;53.574;10.054;2023-03-01T07:48:44;190.45;;;180.50;;
13999;SDS011;7075;53.574;10.054;2023-03-01T07:51:09;194.83;;;184.33;;
13999;SDS011;7075;53.574;10.054;2023-03-01T07:53:35;191.73;;;181.43;;
13999;SDS011;7075;53.574;10.054;2023-03-01T07:56:03;201.63;;;191.03;;
13999;SDS011;7075;53.574;10.054;2023-03-01T07:58:30;195.98;;;185.68;;
13999;SDS011;7075;53.574;10.054;2023-03-01T08:00:56;203.02;;;192.23;;
13999;SDS011;7075;53.574;10.054;2023-03-01T08:03:27;215.57;;;204.32;;
13999;SDS011;7075;53.574;10.054;2023-03-01T08:05:53;206.30;;;195.35;;
13999;SDS011;7075;53.574;10.054;2023-03-01T08:08:19;195.10;;;184.57;;
13999;SDS011;7075;53.574;10.054;2023-03-01T08:10:44;196.40;;;185.77;;
13999;SDS011;7075;53.574;10.054;2023-03-01T08:13:10;194.47;;;184.07;;
13999;SDS011;7075;53.574;10.054;2023-03-01T08:15:35;193.50;;;183.27;;
13999;SDS011;7075;53.574;10.054;2023-03-01T08:18:01;176.77;;;167.32;;
13999;SDS011;7075;53.574;10.054;2023-03-01T08:20:27;176.10;;;166.68;;
13999;SDS011;7075;53.574;10.054;2023-03-01T08:22:52;172.17;;;162.83;;
13999;SDS011;7075;53.574;10.054;2023-03-01T08:25:18;169.60;;;160.43;;
13999;SDS011;7075;53.574;10.054;2023-03-01T08:27:43;175.40;;;165.60;;
13999;SDS011;7075;53.574;10.054;2023-03-01T08:30:09;151.88;;;143.43;;
13999;SDS011;7075;53.574;10.054;2023-03-01T08:32:36;156.05;;;147.40;;
13999;SDS011;7075;53.574;10.054;2023-03-01T08:35:02;160.40;;;151.32;;
13999;SDS011;7075;53.574;10.054;2023-03-01T08:37:28;155.82;;;147.20;;
13999;SDS011;7075;53.574;10.054;2023-03-01T08:39:57;155.57;;;147.13;;
13999;SDS011;7075;53.574;10.054;2023-03-01T08:42:23;149.35;;;141.23;;
13999;SDS011;7075;53.574;10.054;2023-03-01T08:44:49;162.02;;;152.57;;
13999;SDS011;7075;53.574;10.054;2023-03-01T08:47:14;151.43;;;143.23;;
13999;SDS011;7075;53.574;10.054;2023-03-01T08:49:40;155.33;;;147.00;;
13999;SDS011;7075;53.574;10.054;2023-03-01T08:52:05;152.52;;;144.27;;
13999;SDS011;7075;53.574;10.054;2023-03-01T08:54:31;148.47;;;140.50;;
13999;SDS011;7075;53.574;10.054;2023-03-01T08:56:56;144.13;;;136.43;;
13999;SDS011;7075;53.574;10.054;2023-03-01T08:59:24;146.00;;;138.38;;
13999;SDS011;7075;53.574;10.054;2023-03-01T09:01:50;152.43;;;144.43;;
13999;SDS011;7075;53.574;10.054;2023-03-01T09:04:16;151.17;;;143.27;;
13999;SDS011;7075;53.574;10.054;2023-03-01T09:06:41;148.60;;;140.80;;
13999;SDS011;7075;53.574;10.054;2023-03-01T09:09:10;147.98;;;140.27;;
13999;SDS011;7075;53.574;10.054;2023-03-01T09:11:42;149.00;;;141.30;;
13999;SDS011;7075;53.574;10.054;2023-03-01T09:14:08;157.83;;;149.07;;
13999;SDS011;7075;53.574;10.054;2023-03-01T09:16:34;147.97;;;140.20;;
13999;SDS011;7075;53.574;10.054;2023-03-01T09:19:01;149.38;;;141.65;;
13999;SDS011;7075;53.574;10.054;2023-03-01T09:21:27;151.55;;;143.57;;
13999;SDS011;7075;53.574;10.054;2023-03-01T09:23:53;145.53;;;137.70;;
13999;SDS011;7075;53.574;10.054;2023-03-01T09:26:21;148.77;;;140.57;;
13999;SDS011;7075;53.574;10.054;2023-03-01T09:28:52;152.27;;;144.43;;
13999;SDS011;7075;53.574;10.054;2023-03-01T09:31:19;152.88;;;144.98;;
13999;SDS011;7075;53.574;10.054;2023-03-01T09:33:47;152.27;;;144.18;;
13999;SDS011;7075;53.574;10.054;2023-03-01T09:36:18;150.65;;;142.65;;
13999;SDS011;7075;53.574;10.054;2023-03-01T09:38:46;151.20;;;143.13;;
13999;SDS011;7075;53.574;10.054;2023-03-01T09:44:10;146.93;;;139.03;;
13999;SDS011;7075;53.574;10.054;2023-03-01T09:46:56;142.70;;;134.95;;
13999;SDS011;7075;53.574;10.054;2023-03-01T09:49:23;140.07;;;132.32;;
13999;SDS011;7075;53.574;10.054;2023-03-01T09:51:54;139.57;;;132.07;;
13999;SDS011;7075;53.574;10.054;2023-03-01T09:54:36;137.85;;;130.32;;
13999;SDS011;7075;53.574;10.054;2023-03-01T09:57:06;139.68;;;132.23;;
13999;SDS011;7075;53.574;10.054;2023-03-01T10:02:57;137.55;;;129.98;;
13999;SDS011;7075;53.574;10.054;2023-03-01T10:05:47;139.70;;;132.10;;
13999;SDS011;7075;53.574;10.054;2023-03-01T10:11:26;136.55;;;129.25;;
13999;SDS011;7075;53.574;10.054;2023-03-01T10:13:58;131.98;;;124.70;;
13999;SDS011;7075;53.574;10.054;2023-03-01T10:16:55;132.50;;;125.07;;
13999;SDS011;7075;53.574;10.054;2023-03-01T10:22:13;120.75;;;114.35;;
13999;SDS011;7075;53.574;10.054;2023-03-01T10:24:46;119.78;;;113.07;;
13999;SDS011;7075;53.574;10.054;2023-03-01T10:27:21;116.68;;;110.35;;
13999;SDS011;7075;53.574;10.054;2023-03-01T10:32:25;119.88;;;113.47;;
13999;SDS011;7075;53.574;10.054;2023-03-01T10:34:51;128.98;;;121.95;;
13999;SDS011;7075;53.574;10.054;2023-03-01T10:37:18;124.65;;;118.10;;
13999;SDS011;7075;53.574;10.054;2023-03-01T10:42:31;127.47;;;120.68;;
13999;SDS011;7075;53.574;10.054;2023-03-01T10:45:14;132.65;;;125.70;;
13999;SDS011;7075;53.574;10.054;2023-03-01T10:48:00;133.80;;;126.70;;
13999;SDS011;7075;53.574;10.054;2023-03-01T10:50:37;141.73;;;134.10;;
13999;SDS011;7075;53.574;10.054;2023-03-01T10:53:04;146.00;;;138.00;;
13999;SDS011;7075;53.574;10.054;2023-03-01T10:55:41;163.93;;;155.15;;
13999;SDS011;7075;53.574;10.054;2023-03-01T10:58:20;172.07;;;163.00;;
13999;SDS011;7075;53.574;10.054;2023-03-01T11:00:51;170.23;;;161.32;;
13999;SDS011;7075;53.574;10.054;2023-03-01T11:03:25;177.38;;;168.10;;
13999;SDS011;7075;53.574;10.054;2023-03-01T11:05:58;173.95;;;164.98;;
13999;SDS011;7075;53.574;10.054;2023-03-01T11:08:40;171.27;;;162.30;;
13999;SDS011;7075;53.574;10.054;2023-03-01T11:11:18;150.02;;;142.13;;
13999;SDS011;7075;53.574;10.054;2023-03-01T11:16:37;158.93;;;150.50;;
13999;SDS011;7075;53.574;10.054;2023-03-01T11:21:34;186.65;;;176.93;;
13999;SDS011;7075;53.574;10.054;2023-03-01T11:24:15;184.25;;;174.70;;
13999;SDS011;7075;53.574;10.054;2023-03-01T11:26:44;162.45;;;153.95;;
13999;SDS011;7075;53.574;10.054;2023-03-01T11:29:15;200.55;;;190.18;;
13999;SDS011;7075;53.574;10.054;2023-03-01T11:32:03;205.73;;;195.07;;
13999;SDS011;7075;53.574;10.054;2023-03-01T11:34:38;216.98;;;205.75;;
13999;SDS011;7075;53.574;10.054;2023-03-01T11:37:10;194.27;;;184.35;;
13999;SDS011;7075;53.574;10.054;2023-03-01T11:39:54;241.23;;;228.95;;
13999;SDS011;7075;53.574;10.054;2023-03-01T11:42:37;251.88;;;238.45;;
13999;SDS011;7075;53.574;10.054;2023-03-01T11:45:12;238.60;;;226.15;;
13999;SDS011;7075;53.574;10.054;2023-03-01T11:47:44;257.25;;;243.85;;
13999;SDS011;7075;53.574;10.054;2023-03-01T11:50:28;293.42;;;278.02;;
13999;SDS011;7075;53.574;10.054;2023-03-01T11:53:05;319.65;;;302.77;;
13999;SDS011;7075;53.574;10.054;2023-03-01T12:01:30;329.58;;;312.27;;
13999;SDS011;7075;53.574;10.054;2023-03-01T12:06:48;373.38;;;353.42;;
13999;SDS011;7075;53.574;10.054;2023-03-01T12:17:31;366.73;;;347.20;;
13999;SDS011;7075;53.574;10.054;2023-03-01T12:23:00;302.48;;;286.75;;
13999;SDS011;7075;53.574;10.054;2023-03-01T12:25:45;311.55;;;295.35;;
13999;SDS011;7075;53.574;10.054;2023-03-01T12:28:21;290.30;;;275.23;;
13999;SDS011;7075;53.574;10.054;2023-03-01T12:36:24;326.45;;;309.15;;
13999;SDS011;7075;53.574;10.054;2023-03-01T12:44:22;319.40;;;302.63;;
13999;SDS011;7075;53.574;10.054;2023-03-01T12:50:42;367.93;;;347.93;;
13999;SDS011;7075;53.574;10.054;2023-03-01T12:58:05;409.67;;;388.02;;
13999;SDS011;7075;53.574;10.054;2023-03-01T13:00:45;481.17;;;454.53;;
13999;SDS011;7075;53.574;10.054;2023-03-01T13:03:19;430.43;;;406.83;;
13999;SDS011;7075;53.574;10.054;2023-03-01T13:08:40;438.05;;;414.35;;
13999;SDS011;7075;53.574;10.054;2023-03-01T13:11:15;446.35;;;422.17;;
13999;SDS011;7075;53.574;10.054;2023-03-01T13:13:49;435.07;;;411.20;;
13999;SDS011;7075;53.574;10.054;2023-03-01T13:21:49;457.65;;;432.30;;
13999;SDS011;7075;53.574;10.054;2023-03-01T13:24:26;467.03;;;441.33;;
13999;SDS011;7075;53.574;10.054;2023-03-01T13:29:50;472.13;;;445.65;;
13999;SDS011;7075;53.574;10.054;2023-03-01T13:32:30;473.73;;;446.58;;
13999;SDS011;7075;53.574;10.054;2023-03-01T13:37:45;425.83;;;402.48;;
13999;SDS011;7075;53.574;10.054;2023-03-01T13:42:47;410.25;;;388.33;;
13999;SDS011;7075;53.574;10.054;2023-03-01T13:48:09;402.00;;;380.30;;
13999;SDS011;7075;53.574;10.054;2023-03-01T13:50:43;416.05;;;394.10;;
13999;SDS011;7075;53.574;10.054;2023-03-01T13:53:17;444.63;;;420.55;;
13999;SDS011;7075;53.574;10.054;2023-03-01T13:55:46;494.85;;;466.95;;
13999;SDS011;7075;53.574;10.054;2023-03-01T14:00:47;516.95;;;487.35;;
13999;SDS011;7075;53.574;10.054;2023-03-01T14:03:20;496.60;;;468.33;;
13999;SDS011;7075;53.574;10.054;2023-03-01T14:08:32;406.75;;;384.85;;
13999;SDS011;7075;53.574;10.054;2023-03-01T14:19:35;392.05;;;371.17;;
13999;SDS011;7075;53.574;10.054;2023-03-01T14:22:24;387.42;;;366.55;;
13999;SDS011;7075;53.574;10.054;2023-03-01T14:25:03;390.38;;;369.90;;
13999;SDS011;7075;53.574;10.054;2023-03-01T14:28:33;398.10;;;377.27;;
13999;SDS011;7075;53.574;10.054;2023-03-01T14:30:51;393.08;;;372.45;;
13999;SDS011;7075;53.574;10.054;2023-03-01T14:33:39;403.83;;;382.48;;
13999;SDS011;7075;53.574;10.054;2023-03-01T14:36:08;401.95;;;380.52;;
13999;SDS011;7075;53.574;10.054;2023-03-01T14:38:37;406.67;;;384.77;;
13999;SDS011;7075;53.574;10.054;2023-03-01T14:41:19;403.85;;;382.40;;
13999;SDS011;7075;53.574;10.054;2023-03-01T14:43:50;397.33;;;376.23;;
13999;SDS011;7075;53.574;10.054;2023-03-01T14:46:25;427.58;;;404.63;;
13999;SDS011;7075;53.574;10.054;2023-03-01T14:48:56;397.63;;;376.90;;
13999;SDS011;7075;53.574;10.054;2023-03-01T14:51:26;401.02;;;380.40;;
13999;SDS011;7075;53.574;10.054;2023-03-01T14:53:53;408.43;;;387.10;;
13999;SDS011;7075;53.574;10.054;2023-03-01T14:56:23;388.80;;;368.55;;
13999;SDS011;7075;53.574;10.054;2023-03-01T14:58:51;411.88;;;390.33;;
13999;SDS011;7075;53.574;10.054;2023-03-01T15:01:20;384.98;;;364.88;;
13999;SDS011;7075;53.574;10.054;2023-03-01T15:03:48;396.77;;;376.17;;
13999;SDS011;7075;53.574;10.054;2023-03-01T15:06:17;398.85;;;378.02;;
13999;SDS011;7075;53.574;10.054;2023-03-01T15:08:49;400.55;;;379.60;;
13999;SDS011;7075;53.574;10.054;2023-03-01T15:11:27;385.42;;;365.60;;
13999;SDS011;7075;53.574;10.054;2023-03-01T15:13:56;390.83;;;370.85;;
13999;SDS011;7075;53.574;10.054;2023-03-01T15:16:24;389.60;;;369.27;;
13999;SDS011;7075;53.574;10.054;2023-03-01T15:19:05;399.52;;;378.85;;
13999;SDS011;7075;53.574;10.054;2023-03-01T15:21:36;390.45;;;370.15;;
13999;SDS011;7075;53.574;10.054;2023-03-01T15:26:46;392.37;;;372.10;;
13999;SDS011;7075;53.574;10.054;2023-03-01T15:29:17;410.48;;;389.17;;
13999;SDS011;7075;53.574;10.054;2023-03-01T15:31:57;406.10;;;384.85;;
13999;SDS011;7075;53.574;10.054;2023-03-01T15:34:27;388.15;;;367.98;;
13999;SDS011;7075;53.574;10.054;2023-03-01T15:36:56;395.73;;;374.77;;
13999;SDS011;7075;53.574;10.054;2023-03-01T15:39:37;424.77;;;401.95;;
13999;SDS011;7075;53.574;10.054;2023-03-01T15:48:04;442.83;;;418.90;;
13999;SDS011;7075;53.574;10.054;2023-03-01T15:50:53;432.05;;;408.92;;
13999;SDS011;7075;53.574;10.054;2023-03-01T15:53:24;455.42;;;430.67;;
13999;SDS011;7075;53.574;10.054;2023-03-01T15:55:51;468.83;;;443.00;;
13999;SDS011;7075;53.574;10.054;2023-03-01T15:58:19;457.63;;;432.25;;
13999;SDS011;7075;53.574;10.054;2023-03-01T16:00:50;464.08;;;438.48;;
13999;SDS011;7075;53.574;10.054;2023-03-01T16:03:22;420.75;;;397.88;;
13999;SDS011;7075;53.574;10.054;2023-03-01T16:05:50;455.42;;;430.08;;